Time;durP1;ratioP1;P1;durP2;ratioP2;P2;SDS_P1;SDS_P2;PMS_P1;PMS_P2;Temp;Humidity;BMP_temperature;BMP_pressure;BME280_temperature;BME280_humidity;BME280_pressure;Samples;Min_cycle;Max_cycle;Signal;HPM_P1;HPM_P2
2022/09/15 00:01:37;;;;;;;2.03;1.80;;;;;;;19.45;68.77;95576.81;10293056;28;20098;-61
2022/09/15 00:06:56;;;;;;;1.70;1.60;;;;;;;19.47;68.82;95582.66;10300461;28;20051;-61
2022/09/15 00:12:15;;;;;;;1.92;1.73;;;;;;;19.45;68.78;95576.81;10306376;28;20510;-61
2022/09/15 00:17:35;;;;;;;2.30;1.80;;;;;;;19.46;68.65;95578.38;10316472;28;20051;-61
2022/09/15 00:22:54;;;;;;;1.85;1.73;;;;;;;19.45;68.65;95582.22;10318987;28;20046;-61
2022/09/15 00:28:16;;;;;;;2.03;1.85;;;;;;;19.46;68.59;95597.28;10305241;28;20069;-61
2022/09/15 00:33:35;;;;;;;2.00;1.50;;;;;;;19.46;68.63;95594.59;10305501;28;20058;-61
2022/09/15 00:38:55;;;;;;;1.90;1.80;;;;;;;19.46;68.50;95605.38;10300100;28;20047;-62
2022/09/15 00:44:14;;;;;;;1.92;1.67;;;;;;;19.46;68.47;95601.91;10309480;28;20085;-62
2022/09/15 00:49:35;;;;;;;2.00;1.83;;;;;;;19.46;68.54;95602.69;10323038;28;20071;-61
2022/09/15 00:55:09;;;;;;;2.13;1.73;;;;;;;19.45;68.57;95598.44;10307099;28;20038;-61
2022/09/15 01:00:28;;;;;;;2.55;1.70;;;;;;;19.46;68.52;95594.59;10302141;28;20050;-61
2022/09/15 01:05:54;;;;;;;1.80;1.70;;;;;;;19.46;68.46;95583.00;10315397;28;20085;-62
2022/09/15 01:11:15;;;;;;;1.83;1.70;;;;;;;19.46;68.46;95585.72;10295129;28;20055;-61
2022/09/15 01:16:50;;;;;;;1.70;1.60;;;;;;;19.46;68.46;95591.88;10301431;28;20050;-61
2022/09/15 01:22:20;;;;;;;1.80;1.50;;;;;;;19.45;68.38;95589.56;10284357;28;20051;-61
2022/09/15 01:27:51;;;;;;;1.77;1.67;;;;;;;19.44;68.48;95583.34;10280534;28;20058;-62
2022/09/15 01:33:22;;;;;;;1.75;1.65;;;;;;;19.45;68.40;95586.84;10280486;28;20058;-61
2022/09/15 01:38:59;;;;;;;1.70;1.60;;;;;;;19.44;68.31;95586.06;10293338;28;20055;-60
2022/09/15 01:44:24;;;;;;;1.65;1.45;;;;;;;19.44;68.29;95591.47;10295926;28;20081;-61
2022/09/15 01:49:50;;;;;;;1.70;1.60;;;;;;;19.45;68.36;95593.03;10280654;28;20537;-59
2022/09/15 01:55:21;;;;;;;1.70;1.40;;;;;;;19.46;68.31;95600.00;10288204;28;20059;-62
2022/09/15 02:00:43;;;;;;;1.60;1.50;;;;;;;19.46;68.22;95599.22;10264208;28;20058;-61
2022/09/15 02:06:07;;;;;;;1.48;1.38;;;;;;;19.45;68.22;95594.97;10286693;28;20055;-60
2022/09/15 02:11:27;;;;;;;1.60;1.50;;;;;;;19.45;68.26;95584.16;10290532;28;20563;-61
2022/09/15 02:16:49;;;;;;;1.98;1.50;;;;;;;19.44;68.09;95593.38;10293497;28;20050;-61
2022/09/15 02:22:12;;;;;;;1.50;1.40;;;;;;;19.45;68.13;95593.03;10321622;28;20043;-61
2022/09/15 02:27:36;;;;;;;1.92;1.50;;;;;;;19.45;68.13;95597.66;10293095;28;20061;-61
2022/09/15 02:32:59;;;;;;;1.60;1.38;;;;;;;19.45;68.13;95603.06;10297005;28;20058;-61
2022/09/15 02:38:19;;;;;;;1.50;1.40;;;;;;;19.46;68.08;95593.81;10307743;28;20043;-61
2022/09/15 02:43:48;;;;;;;2.45;1.50;;;;;;;19.45;68.04;95592.25;10294172;28;20414;-61
2022/09/15 02:49:08;;;;;;;1.52;1.42;;;;;;;19.45;68.14;95603.06;10300173;28;20062;-61
2022/09/15 02:54:27;;;;;;;1.55;1.45;;;;;;;19.44;68.02;95610.34;10303663;28;20051;-61
2022/09/15 03:05:27;;;;;;;2.00;1.50;;;;;;;19.44;68.03;95623.88;10307038;28;20039;-61
2022/09/15 03:10:47;;;;;;;1.45;1.35;;;;;;;19.45;68.05;95619.28;10296299;28;20046;-61
2022/09/15 03:16:10;;;;;;;1.55;1.40;;;;;;;19.44;68.05;95636.59;10294137;28;20055;-61
2022/09/15 03:21:29;;;;;;;1.50;1.40;;;;;;;19.44;68.06;95623.09;10296433;28;20506;-61
2022/09/15 03:26:49;;;;;;;1.40;1.30;;;;;;;19.44;67.95;95626.56;10307331;28;20065;-62
2022/09/15 03:32:08;;;;;;;1.52;1.42;;;;;;;19.45;67.95;95624.66;10303137;28;20109;-61
2022/09/15 03:37:28;;;;;;;1.30;1.20;;;;;;;19.43;68.02;95633.13;10297593;28;20058;-61
2022/09/15 03:42:48;;;;;;;1.30;1.20;;;;;;;19.45;67.84;95640.88;10304399;28;20050;-61
2022/09/15 03:48:08;;;;;;;1.33;1.23;;;;;;;19.44;67.90;95644.69;10295198;28;20043;-61
2022/09/15 03:53:30;;;;;;;1.40;1.30;;;;;;;19.43;67.85;95641.22;10308740;28;20077;-61
2022/09/15 03:58:50;;;;;;;1.20;1.20;;;;;;;19.43;67.97;95641.22;10292185;28;20067;-61
2022/09/15 04:04:11;;;;;;;1.40;1.30;;;;;;;19.44;67.96;95642.00;10316287;28;20049;-61
2022/09/15 04:09:30;;;;;;;1.58;1.38;;;;;;;19.42;67.94;95647.75;10307691;28;20050;-59
2022/09/15 04:14:49;;;;;;;1.50;1.35;;;;;;;19.45;67.95;95651.69;10278210;28;20129;-61
2022/09/15 04:20:09;;;;;;;1.90;1.20;;;;;;;19.44;68.01;95653.56;10292165;28;20050;-60
2022/09/15 04:25:28;;;;;;;1.50;1.40;;;;;;;19.45;68.14;95657.09;10252038;28;20055;-60
2022/09/15 04:30:47;;;;;;;3.40;1.30;;;;;;;19.44;68.16;95648.16;10273487;28;20047;-61
2022/09/15 04:36:09;;;;;;;3.35;1.30;;;;;;;19.42;68.18;95647.75;10282913;28;20063;-61
2022/09/15 04:41:28;;;;;;;1.35;1.15;;;;;;;19.44;68.09;95650.09;10279671;28;20541;-60
2022/09/15 04:46:47;;;;;;;1.42;1.30;;;;;;;19.43;68.06;95648.53;10310640;28;20046;-61
2022/09/15 04:52:07;;;;;;;1.23;1.13;;;;;;;19.42;67.98;95653.16;10285970;28;20050;-61
2022/09/15 04:57:27;;;;;;;2.10;1.30;;;;;;;19.41;67.79;95650.81;10276547;28;20454;-61
2022/09/15 05:02:46;;;;;;;2.70;1.63;;;;;;;19.39;67.69;95653.88;10298129;28;20133;-61
2022/09/15 05:08:07;;;;;;;6.78;2.30;;;;;;;19.36;67.61;95665.34;10276971;28;20063;-61
2022/09/15 05:13:26;;;;;;;6.65;2.28;;;;;;;19.34;67.49;95662.22;10288492;28;20078;-61
2022/09/15 05:18:47;;;;;;;6.72;2.20;;;;;;;19.33;67.51;95655.25;10301445;28;20566;-61
2022/09/15 05:24:06;;;;;;;4.53;1.88;;;;;;;19.35;67.52;95653.00;10298114;28;20285;-62
2022/09/15 05:29:26;;;;;;;6.78;1.83;;;;;;;19.36;67.53;95649.91;10307234;28;20050;-62
2022/09/15 05:34:45;;;;;;;8.05;2.60;;;;;;;19.37;67.58;95648.03;10308978;28;20078;-61
2022/09/15 05:40:05;;;;;;;14.25;3.47;;;;;;;19.38;67.56;95654.97;10297401;28;20059;-61
2022/09/15 05:45:24;;;;;;;6.90;2.47;;;;;;;19.39;67.47;95655.78;10297166;28;20051;-60
2022/09/15 05:50:48;;;;;;;6.85;2.45;;;;;;;19.39;67.56;95645.75;10312334;28;20490;-62
2022/09/15 05:56:12;;;;;;;8.18;2.70;;;;;;;19.39;67.51;95637.66;10309478;28;20108;-61
2022/09/15 06:01:32;;;;;;;9.25;2.35;;;;;;;19.38;67.59;95636.06;10310233;28;20046;-61
2022/09/15 06:06:51;;;;;;;5.07;2.10;;;;;;;19.38;67.59;95640.69;10296920;28;20053;-60
2022/09/15 06:12:10;;;;;;;5.57;2.40;;;;;;;19.40;67.55;95638.44;10301706;28;20109;-62
2022/09/15 06:17:32;;;;;;;7.45;2.50;;;;;;;19.39;67.58;95640.34;10295921;28;20047;-62
2022/09/15 06:22:52;;;;;;;5.60;2.30;;;;;;;19.39;67.52;95650.38;10295937;28;20055;-61
2022/09/15 06:28:12;;;;;;;5.63;2.65;;;;;;;19.40;67.54;95662.75;10295380;28;20422;-62
2022/09/15 06:33:31;;;;;;;5.85;2.40;;;;;;;19.39;67.53;95658.50;10297917;28;20059;-61
2022/09/15 06:38:51;;;;;;;7.53;2.53;;;;;;;19.39;67.59;95663.88;10297396;28;20494;-62
2022/09/15 06:44:11;;;;;;;5.85;2.60;;;;;;;19.38;67.55;95663.09;10291826;28;20050;-61
2022/09/15 06:49:30;;;;;;;4.43;2.03;;;;;;;19.39;67.52;95670.06;10311904;28;20047;-61
2022/09/15 06:54:50;;;;;;;7.28;2.65;;;;;;;19.39;67.55;95669.28;10305822;28;20062;-61
2022/09/15 07:00:09;;;;;;;9.15;2.70;;;;;;;19.38;67.56;95676.59;10308071;28;20054;-61
2022/09/15 07:05:29;;;;;;;11.85;3.42;;;;;;;19.39;67.56;95685.50;10311822;28;20038;-61
2022/09/15 07:10:49;;;;;;;12.38;3.67;;;;;;;19.39;67.55;95686.28;10317619;28;20057;-61
2022/09/15 07:16:11;;;;;;;15.90;4.05;;;;;;;19.38;67.58;95690.09;10333523;28;20054;-61
2022/09/15 07:21:30;;;;;;;14.57;3.40;;;;;;;19.39;67.55;95697.06;10346196;28;20405;-62
2022/09/15 07:26:50;;;;;;;10.25;3.20;;;;;;;19.39;67.57;95691.66;10318611;28;20054;-62
2022/09/15 07:32:10;;;;;;;9.35;3.55;;;;;;;19.39;67.56;95702.47;10320625;28;20061;-61
2022/09/15 07:37:31;;;;;;;12.80;3.72;;;;;;;19.39;67.49;95697.06;10345696;28;20097;-61
2022/09/15 07:42:50;;;;;;;12.85;3.33;;;;;;;19.39;67.44;95694.38;10321781;28;20046;-61
2022/09/15 07:48:10;;;;;;;9.80;3.58;;;;;;;19.40;67.43;95701.31;10332627;28;20102;-61
2022/09/15 07:53:29;;;;;;;46.72;17.92;;;;;;;19.41;67.56;95715.63;10312203;28;20510;-63
2022/09/15 07:58:49;;;;;;;39.72;17.27;;;;;;;19.39;67.89;95702.47;10307470;28;20448;-62
2022/09/15 08:04:09;;;;;;;29.17;12.65;;;;;;;19.40;67.89;95697.84;10277682;28;20489;-62
2022/09/15 08:09:29;;;;;;;20.65;8.48;;;;;;;19.38;67.90;95694.72;10300295;28;20057;-62
2022/09/15 08:14:48;;;;;;;14.60;6.80;;;;;;;19.37;67.92;95675.03;10292547;28;20540;-61
2022/09/15 08:20:08;;;;;;;12.70;5.82;;;;;;;19.36;67.83;95682.31;10287754;28;20050;-62
2022/09/15 08:25:27;;;;;;;10.02;5.30;;;;;;;19.35;67.51;95680.78;10308987;28;20425;-63
2022/09/15 08:30:47;;;;;;;9.90;5.20;;;;;;;19.36;67.44;95695.84;10300636;28;20482;-63
2022/09/15 08:36:11;;;;;;;7.68;3.97;;;;;;;19.34;67.59;95710.81;10303160;28;20182;-63
2022/09/15 08:41:34;;;;;;;5.90;3.22;;;;;;;19.33;67.51;95709.28;10311545;28;20113;-63
2022/09/15 08:47:14;;;;;;;4.55;3.30;;;;;;;19.32;67.36;95713.09;10297579;28;20109;-63
2022/09/15 08:52:39;;;;;;;3.53;2.58;;;;;;;19.32;67.48;95718.50;10301994;28;20421;-63
2022/09/15 08:57:59;;;;;;;3.70;2.42;;;;;;;19.29;67.37;95728.09;10302971;28;20057;-63
2022/09/15 09:03:37;;;;;;;3.75;2.55;;;;;;;19.29;67.45;95717.28;10298656;28;20058;-62
2022/09/15 09:09:19;;;;;;;4.03;2.40;;;;;;;19.29;67.39;95722.69;10309492;28;20050;-62
2022/09/15 09:15:07;;;;;;;3.95;2.28;;;;;;;19.30;67.34;95726.16;10296701;28;20082;-63
2022/09/15 09:20:38;;;;;;;3.17;2.03;;;;;;;19.31;67.24;95735.84;10323103;28;20387;-63
2022/09/15 09:26:00;;;;;;;2.75;2.00;;;;;;;19.30;67.25;95728.88;10307351;28;20051;-63
2022/09/15 09:31:22;;;;;;;3.10;1.85;;;;;;;19.30;67.34;95721.53;10299697;28;20062;-63
2022/09/15 09:36:41;;;;;;;3.08;2.10;;;;;;;19.32;67.45;95727.38;10297631;28;20077;-62
2022/09/15 09:42:01;;;;;;;2.17;1.83;;;;;;;19.32;67.50;95721.19;10297276;28;20050;-63
2022/09/15 09:47:26;;;;;;;2.72;2.28;;;;;;;19.32;67.56;95719.28;10286564;28;20058;-63
2022/09/15 09:52:45;;;;;;;2.60;1.95;;;;;;;19.34;67.61;95724.34;10295736;28;20108;-63
2022/09/15 09:58:12;;;;;;;3.00;1.95;;;;;;;19.33;67.60;95723.56;10298063;28;20043;-63
2022/09/15 10:03:31;;;;;;;2.65;2.00;;;;;;;19.34;67.68;95716.22;10296668;28;20058;-61
2022/09/15 10:08:54;;;;;;;3.20;2.00;;;;;;;19.33;67.71;95731.66;10298866;28;20043;-62
2022/09/15 10:14:24;;;;;;;3.10;1.90;;;;;;;19.34;67.59;95744.00;10306699;28;20062;-62
2022/09/15 10:19:54;;;;;;;2.55;1.80;;;;;;;19.34;67.62;95735.91;10322372;28;20055;-63
2022/09/15 10:25:19;;;;;;;2.42;1.75;;;;;;;19.34;67.53;95738.59;10307746;28;20069;-63
2022/09/15 10:31:06;;;;;;;3.25;1.65;;;;;;;19.34;67.69;95743.22;10288666;28;20058;-63
2022/09/15 10:36:29;;;;;;;2.17;1.90;;;;;;;19.33;67.68;95750.56;10295095;28;20062;-62
2022/09/15 10:42:05;;;;;;;2.58;1.90;;;;;;;19.34;67.64;95744.00;10310635;28;20490;-63
2022/09/15 10:47:33;;;;;;;2.85;1.70;;;;;;;19.33;67.57;95741.69;10331917;28;20453;-62
2022/09/15 10:52:59;;;;;;;2.03;1.60;;;;;;;19.34;67.66;95748.63;10299053;28;20066;-62
2022/09/15 10:58:24;;;;;;;2.83;1.70;;;;;;;19.33;67.68;95745.16;10291128;28;20057;-62
2022/09/15 11:04:10;;;;;;;3.15;1.90;;;;;;;19.33;67.55;95728.19;10304798;28;20134;-62
2022/09/15 11:09:37;;;;;;;2.80;1.73;;;;;;;19.33;67.51;95709.28;10307733;28;20058;-63
2022/09/15 11:15:03;;;;;;;2.03;1.70;;;;;;;19.34;67.68;95686.53;10297531;28;20094;-63
2022/09/15 11:20:38;;;;;;;2.28;1.73;;;;;;;19.34;67.56;95694.63;10330906;28;20410;-63
2022/09/15 11:26:13;;;;;;;2.80;1.63;;;;;;;19.34;67.65;95671.09;10293734;28;20399;-62
2022/09/15 11:31:37;;;;;;;1.50;1.40;;;;;;;19.34;67.67;95741.31;10321569;28;20046;-63
2022/09/15 11:37:07;;;;;;;1.98;1.42;;;;;;;19.35;67.45;95777.22;10328497;28;20057;-62
2022/09/15 11:43:00;;;;;;;1.70;1.40;;;;;;;19.35;67.62;95774.53;10318410;28;20054;-62
2022/09/15 11:48:38;;;;;;;1.95;1.60;;;;;;;19.34;67.59;95783.75;10302191;28;20072;-63
2022/09/15 11:54:06;;;;;;;1.58;1.48;;;;;;;19.34;67.66;95772.94;10306278;28;20054;-62
2022/09/15 11:59:48;;;;;;;2.08;1.60;;;;;;;19.34;67.53;95776.41;10330868;28;20052;-62
2022/09/15 12:05:13;;;;;;;2.35;1.48;;;;;;;19.36;67.57;95784.19;10307665;28;20082;-62
2022/09/15 12:10:38;;;;;;;1.60;1.50;;;;;;;19.34;67.55;95781.81;10322016;28;20274;-63
2022/09/15 12:15:59;;;;;;;1.65;1.55;;;;;;;19.34;67.66;95786.44;10332054;28;20046;-62
2022/09/15 12:21:24;;;;;;;1.40;1.30;;;;;;;19.34;67.57;95783.75;10313482;28;20054;-63
2022/09/15 12:26:45;;;;;;;1.85;1.50;;;;;;;19.35;67.60;95790.72;10331533;28;20481;-60
2022/09/15 12:32:17;;;;;;;2.17;1.40;;;;;;;19.33;67.51;95788.38;10321710;28;20417;-62
2022/09/15 12:37:46;;;;;;;1.58;1.42;;;;;;;19.34;67.61;95800.72;10325674;28;20482;-62
2022/09/15 12:43:12;;;;;;;2.60;1.77;;;;;;;19.34;67.51;95808.03;10316550;28;20050;-63
2022/09/15 12:48:33;;;;;;;1.40;1.30;;;;;;;19.33;67.54;95803.78;10344441;28;20054;-63
2022/09/15 12:53:57;;;;;;;1.50;1.40;;;;;;;19.33;67.64;95803.78;10326480;28;20134;-62
2022/09/15 12:59:16;;;;;;;1.58;1.45;;;;;;;19.33;67.55;95806.50;10320186;28;20124;-62
2022/09/15 13:04:42;;;;;;;1.38;1.27;;;;;;;19.35;67.49;95804.22;10314930;28;20189;-62
2022/09/15 13:10:08;;;;;;;1.73;1.50;;;;;;;19.35;67.48;95809.63;10337876;28;20054;-63
2022/09/15 13:15:27;;;;;;;1.60;1.30;;;;;;;19.34;67.50;95808.81;10250842;28;20042;-63
2022/09/15 13:20:59;;;;;;;1.50;1.40;;;;;;;19.34;67.53;95808.03;10293566;28;20073;-63
2022/09/15 13:26:22;;;;;;;1.25;1.15;;;;;;;19.34;67.46;95799.94;10271354;28;20458;-63
2022/09/15 13:32:33;;;;;;;1.45;1.35;;;;;;;19.34;67.40;95797.25;10247636;28;20078;-62
2022/09/15 13:38:29;;;;;;;1.70;1.40;;;;;;;19.34;67.55;95799.94;10231845;28;20078;-61
2022/09/15 13:44:12;;;;;;;1.38;1.17;;;;;;;19.34;67.44;95810.75;10291654;28;20038;-63
2022/09/15 13:49:52;;;;;;;1.30;1.20;;;;;;;19.34;67.31;95814.22;10305102;28;20039;-63
2022/09/15 13:55:25;;;;;;;1.30;1.20;;;;;;;19.33;67.32;95817.28;10281332;28;20058;-63
2022/09/15 14:01:04;;;;;;;1.35;1.25;;;;;;;19.33;67.38;95814.59;10286893;28;20096;-61
2022/09/15 14:06:25;;;;;;;1.35;1.25;;;;;;;19.34;67.30;95816.16;10257050;28;20506;-63
2022/09/15 14:11:51;;;;;;;1.95;1.58;;;;;;;19.33;67.32;95801.09;10277689;28;20081;-63
2022/09/15 14:17:25;;;;;;;1.88;1.42;;;;;;;19.32;67.31;95794.88;10309672;28;20414;-63
2022/09/15 14:22:47;;;;;;;1.45;1.35;;;;;;;19.33;67.35;95804.56;10335895;28;20062;-63
2022/09/15 14:28:07;;;;;;;1.92;1.58;;;;;;;19.33;67.31;95795.69;10320798;28;20061;-63
2022/09/15 14:33:38;;;;;;;1.30;1.17;;;;;;;19.33;67.25;95803.78;10316509;28;20085;-63
2022/09/15 14:39:10;;;;;;;1.40;1.30;;;;;;;19.32;67.18;95804.91;10320358;28;20046;-63
2022/09/15 14:44:38;;;;;;;1.58;1.48;;;;;;;19.32;67.30;95805.69;10318837;28;20050;-63
2022/09/15 14:50:17;;;;;;;4.20;2.00;;;;;;;19.33;67.24;95806.50;10329318;28;20053;-63
2022/09/15 14:55:38;;;;;;;;;;;;;;;19.34;67.75;95808.03;10321531;28;20070;-61
2022/09/15 15:01:19;;;;;;;2.17;1.63;;;;;;;19.35;67.96;95809.63;10309001;28;19922;-62
2022/09/15 15:06:55;;;;;;;3.03;1.50;;;;;;;19.34;67.94;95806.13;10318988;28;20070;-62
2022/09/15 15:12:26;;;;;;;2.10;1.90;;;;;;;19.34;68.05;95805.34;10311275;28;20129;-63
2022/09/15 15:17:55;;;;;;;3.35;2.20;;;;;;;19.33;67.62;95809.19;10315491;28;20145;-63
2022/09/15 15:23:22;;;;;;;3.53;3.03;;;;;;;19.31;67.07;95795.25;10318119;28;20057;-63
2022/09/15 15:28:41;;;;;;;3.95;3.13;;;;;;;19.30;66.73;95807.94;10323524;28;20100;-62
2022/09/15 15:34:04;;;;;;;3.70;2.83;;;;;;;19.29;66.40;95798.28;10319265;28;20050;-63
2022/09/15 15:39:24;;;;;;;4.53;2.97;;;;;;;19.27;66.44;95795.16;10318261;28;20054;-63
2022/09/15 15:45:00;;;;;;;4.63;3.72;;;;;;;19.26;66.28;95812.47;10306640;28;20054;-63
2022/09/15 15:50:24;;;;;;;;;;;;;;;19.27;65.81;95807.88;10329874;28;20056;-63
2022/09/15 15:55:44;;;;;;;4.72;3.30;;;;;;;19.25;65.98;95808.22;10332323;28;19933;-62
2022/09/15 16:01:03;;;;;;;4.90;4.15;;;;;;;19.25;65.85;95818.22;10307036;28;20504;-63
2022/09/15 16:06:23;;;;;;;5.22;4.50;;;;;;;19.25;65.84;95815.50;10345150;28;20050;-64
2022/09/15 16:11:42;;;;;;;5.60;4.55;;;;;;;19.24;65.65;95813.97;10318426;28;20050;-63
2022/09/15 16:17:02;;;;;;;4.13;3.70;;;;;;;19.24;65.60;95819.34;10319522;28;20112;-63
2022/09/15 16:22:21;;;;;;;4.72;4.20;;;;;;;19.23;65.54;95818.59;10331703;28;20116;-64
2022/09/15 16:27:41;;;;;;;5.40;4.70;;;;;;;19.22;65.46;95825.09;10322479;28;20062;-63
2022/09/15 16:33:00;;;;;;;5.53;4.38;;;;;;;19.21;65.35;95810.03;10295625;28;20050;-64
2022/09/15 16:38:24;;;;;;;5.60;4.65;;;;;;;19.20;65.29;95808.47;10306878;28;20050;-63
2022/09/15 16:43:45;;;;;;;5.18;4.68;;;;;;;19.20;64.99;95813.09;10310316;28;20054;-63
2022/09/15 16:49:04;;;;;;;5.90;5.25;;;;;;;19.13;64.68;95814.47;10301803;28;20061;-58
2022/09/15 16:54:26;;;;;;;5.63;5.03;;;;;;;19.08;64.53;95816.63;10321107;28;20058;-64
2022/09/15 16:59:46;;;;;;;4.22;3.78;;;;;;;19.10;64.97;95815.16;10322404;28;20471;-61
2022/09/15 17:05:16;;;;;;;4.13;3.70;;;;;;;19.13;65.23;95819.88;10303737;28;20073;-63
2022/09/15 17:10:37;;;;;;;4.85;3.65;;;;;;;19.17;65.62;95831.53;10296854;28;20050;-63
2022/09/15 17:15:57;;;;;;;4.45;3.50;;;;;;;19.19;65.85;95833.09;10287560;28;20059;-62
2022/09/15 17:21:18;;;;;;;6.38;3.25;;;;;;;19.21;66.06;95844.34;10297875;28;20054;-62
2022/09/15 17:26:38;;;;;;;4.57;3.20;;;;;;;19.21;66.17;95841.63;10296004;28;20062;-60
2022/09/15 17:31:57;;;;;;;4.55;3.50;;;;;;;19.22;66.30;95851.31;10281957;28;20062;-62
2022/09/15 17:37:17;;;;;;;4.00;3.35;;;;;;;19.22;66.36;95859.41;10271456;28;20051;-61
2022/09/15 17:42:36;;;;;;;3.50;3.20;;;;;;;19.21;66.40;95864.03;10284171;28;20054;-62
2022/09/15 17:47:56;;;;;;;5.80;3.78;;;;;;;19.22;66.40;95867.53;10286495;28;20511;-62
2022/09/15 17:53:21;;;;;;;7.78;3.17;;;;;;;19.22;66.52;95867.53;10283587;28;20057;-61
2022/09/15 17:58:41;;;;;;;5.53;3.40;;;;;;;19.22;66.57;95872.94;10262472;28;20051;-63
2022/09/15 18:04:01;;;;;;;4.05;3.40;;;;;;;19.22;66.58;95879.09;10274957;28;20058;-62
2022/09/15 18:09:21;;;;;;;3.50;3.20;;;;;;;19.23;66.54;95887.97;10274704;28;20119;-61
2022/09/15 18:14:40;;;;;;;4.20;3.40;;;;;;;19.22;66.57;95886.41;10292049;28;20068;-61
2022/09/15 18:20:00;;;;;;;3.83;3.17;;;;;;;19.22;66.52;95897.22;10289971;28;20047;-63
2022/09/15 18:25:23;;;;;;;4.00;3.30;;;;;;;19.22;66.54;95902.63;10294964;28;20051;-62
2022/09/15 18:30:46;;;;;;;3.38;3.08;;;;;;;19.21;66.55;95920.75;10294776;28;20399;-61
2022/09/15 18:36:06;;;;;;;3.88;3.20;;;;;;;19.23;66.44;95909.56;10297219;28;20051;-61
2022/09/15 18:41:26;;;;;;;3.40;3.10;;;;;;;19.22;66.57;95913.44;10294799;28;20057;-61
2022/09/15 18:46:46;;;;;;;3.63;3.20;;;;;;;19.22;66.62;95921.53;10291389;28;20054;-62
2022/09/15 18:52:05;;;;;;;3.55;3.25;;;;;;;19.21;66.55;95918.03;10294596;28;20054;-62
2022/09/15 18:57:27;;;;;;;3.97;3.65;;;;;;;19.22;66.61;95938.50;10297184;28;20133;-61
2022/09/15 19:02:47;;;;;;;4.53;3.17;;;;;;;19.21;66.57;95939.66;10294460;28;20228;-61
2022/09/15 19:08:08;;;;;;;3.65;3.30;;;;;;;19.21;66.55;95950.44;10325163;28;20059;-61
2022/09/15 19:13:27;;;;;;;3.45;3.15;;;;;;;19.20;66.60;95948.84;10299364;28;20069;-62
2022/09/15 19:18:49;;;;;;;4.68;3.30;;;;;;;19.21;66.50;95955.03;10307164;28;20482;-61
2022/09/15 19:24:08;;;;;;;3.50;3.20;;;;;;;19.21;66.53;95949.63;10306721;28;20380;-62
2022/09/15 19:29:33;;;;;;;3.80;3.50;;;;;;;19.20;66.57;95950.78;10314249;28;20104;-62
2022/09/15 19:34:54;;;;;;;3.25;2.95;;;;;;;19.21;66.64;95944.25;10294284;28;20062;-61
2022/09/15 19:40:14;;;;;;;3.90;3.15;;;;;;;19.20;66.57;95948.84;10298363;28;20109;-62
2022/09/15 19:45:33;;;;;;;3.50;3.20;;;;;;;19.20;66.45;95953.47;10297903;28;20065;-62
2022/09/15 19:50:53;;;;;;;3.40;3.10;;;;;;;19.20;66.53;95958.88;10295995;28;20054;-62
2022/09/15 19:56:14;;;;;;;5.45;3.50;;;;;;;19.19;66.52;95965.41;10285734;28;20059;-62
2022/09/15 20:01:33;;;;;;;4.18;3.28;;;;;;;19.19;66.57;95965.41;10291832;28;20051;-62
2022/09/15 20:06:53;;;;;;;3.20;2.90;;;;;;;19.19;66.54;95974.31;10283050;28;20109;-62
2022/09/15 20:12:13;;;;;;;3.33;3.00;;;;;;;19.18;66.55;95978.13;10291524;28;20055;-62
2022/09/15 20:17:33;;;;;;;3.28;2.97;;;;;;;19.20;66.57;95978.56;10291620;28;20502;-63
2022/09/15 20:22:52;;;;;;;3.45;2.90;;;;;;;19.19;66.67;95973.50;10291977;28;20055;-61
2022/09/15 20:28:11;;;;;;;3.22;2.97;;;;;;;19.19;66.53;95981.59;10294605;28;20050;-63
2022/09/15 20:33:32;;;;;;;4.25;2.92;;;;;;;19.19;66.52;95997.78;10297872;28;20046;-63
2022/09/15 20:38:52;;;;;;;3.53;3.05;;;;;;;19.17;66.52;96004.34;10291479;28;20122;-63
2022/09/15 20:44:12;;;;;;;5.05;2.80;;;;;;;19.19;66.70;96014.00;10291452;28;20054;-62
2022/09/15 20:49:32;;;;;;;3.20;2.75;;;;;;;19.20;66.65;96005.56;10291479;28;20106;-62
2022/09/15 20:54:51;;;;;;;3.15;2.85;;;;;;;19.20;66.63;96007.47;10310141;28;20054;-62
2022/09/15 21:00:11;;;;;;;2.95;2.65;;;;;;;19.19;66.64;96008.59;10302048;28;20054;-62
2022/09/15 21:05:31;;;;;;;3.38;2.55;;;;;;;19.20;66.66;96008.25;10291226;28;20055;-62
2022/09/15 21:10:51;;;;;;;3.17;2.90;;;;;;;19.19;66.78;96014.00;10294383;28;20059;-62
2022/09/15 21:16:13;;;;;;;3.10;2.60;;;;;;;19.19;66.71;96025.59;10320432;28;20046;-62
2022/09/15 21:21:33;;;;;;;2.95;2.60;;;;;;;19.17;66.85;96031.34;10280009;28;20051;-62
2022/09/15 21:32:31;;;;;;;3.78;2.80;;;;;;;19.18;66.96;96042.91;10310628;28;20043;-57
2022/09/15 21:37:51;;;;;;;2.85;2.55;;;;;;;19.18;66.96;96045.63;10326940;28;20057;-62
2022/09/15 21:43:11;;;;;;;2.63;2.40;;;;;;;19.17;66.99;96050.25;10323913;28;20502;-62
2022/09/15 21:48:33;;;;;;;2.55;2.35;;;;;;;19.17;67.11;96052.94;10303664;28;20046;-62
2022/09/15 21:53:54;;;;;;;2.80;2.55;;;;;;;19.17;67.04;96052.94;10297558;28;20077;-62
2022/09/15 21:59:13;;;;;;;3.05;2.72;;;;;;;19.18;67.08;96064.53;10298995;28;20050;-61
2022/09/15 22:04:33;;;;;;;2.53;2.30;;;;;;;19.16;67.12;96072.94;10309852;28;20054;-61
2022/09/15 22:09:53;;;;;;;2.70;2.40;;;;;;;19.19;67.06;96073.41;10286085;28;20046;-61
2022/09/15 22:15:12;;;;;;;2.50;2.30;;;;;;;19.17;67.11;96082.63;10322939;28;20070;-62
2022/09/15 22:20:32;;;;;;;2.75;2.38;;;;;;;19.17;67.05;96071.06;10336383;28;20057;-62
2022/09/15 22:25:51;;;;;;;2.65;2.45;;;;;;;19.17;67.07;96087.25;10299893;28;20054;-63
2022/09/15 22:31:12;;;;;;;2.50;2.30;;;;;;;19.18;67.12;96080.72;10327109;28;20054;-62
2022/09/15 22:36:32;;;;;;;2.75;2.55;;;;;;;19.17;67.17;96074.53;10319631;28;20061;-61
2022/09/15 22:41:52;;;;;;;3.13;2.50;;;;;;;19.16;67.23;96069.47;10330814;28;20058;-63
2022/09/15 22:47:11;;;;;;;2.60;2.40;;;;;;;19.17;67.19;96079.94;10326255;28;20041;-61
2022/09/15 22:52:31;;;;;;;2.63;2.42;;;;;;;19.15;67.16;96071.41;10334823;28;20054;-63
2022/09/15 22:57:51;;;;;;;2.60;2.40;;;;;;;19.16;67.18;96083.75;10343120;28;20042;-61
2022/09/15 23:03:11;;;;;;;2.60;2.40;;;;;;;19.15;67.08;96076.78;10334580;28;20137;-62
2022/09/15 23:08:31;;;;;;;2.50;2.30;;;;;;;19.17;67.16;96084.56;10333623;28;20122;-61
2022/09/15 23:13:52;;;;;;;2.40;2.20;;;;;;;19.15;67.04;96074.09;10308120;28;20055;-62
2022/09/15 23:19:12;;;;;;;2.05;1.95;;;;;;;19.17;67.15;96085.34;10294265;28;20050;-62
2022/09/15 23:24:32;;;;;;;2.47;2.28;;;;;;;19.16;67.06;96097.25;10311798;28;20516;-62
2022/09/15 23:29:51;;;;;;;2.42;2.22;;;;;;;19.15;67.10;96101.09;10328576;28;20057;-62
2022/09/15 23:35:11;;;;;;;2.70;2.50;;;;;;;19.15;67.07;96089.47;10303941;28;20055;-62
2022/09/15 23:40:30;;;;;;;2.58;2.22;;;;;;;19.15;67.10;96087.59;10293153;28;20043;-62
2022/09/15 23:45:50;;;;;;;2.22;2.03;;;;;;;19.13;67.09;96081.75;10292624;28;20050;-62
2022/09/15 23:51:09;;;;;;;2.15;2.05;;;;;;;19.15;67.21;96084.91;10293265;28;20047;-62
2022/09/15 23:56:29;;;;;;;2.63;2.42;;;;;;;19.15;67.13;96070.59;10293368;28;20059;-62
